Time;durP1;ratioP1;P1;durP2;ratioP2;P2;SDS_P1;SDS_P2;PMS_P1;PMS_P2;Temp;Humidity;BMP_temperature;BMP_pressure;BME280_temperature;BME280_humidity;BME280_pressure;Samples;Min_cycle;Max_cycle;Signal;HPM_P1;HPM_P2
2022/10/11 00:00:33;;;;;;;19.20;9.28;;;;;;;10.71;73.08;99353.84;1750311;81;21469;-49
2022/10/11 00:02:59;;;;;;;17.12;8.90;;;;;;;10.70;73.21;99354.76;1749759;82;21553;-44
2022/10/11 00:05:25;;;;;;;20.17;10.30;;;;;;;10.72;73.15;99356.84;1750180;81;20981;-45
2022/10/11 00:07:52;;;;;;;23.07;9.30;;;;;;;10.73;73.55;99355.92;1750249;82;21029;-45
2022/10/11 00:10:19;;;;;;;16.10;9.38;;;;;;;10.75;73.21;99358.44;1750223;82;21032;-49
2022/10/11 00:12:45;;;;;;;23.32;9.80;;;;;;;10.76;73.25;99361.47;1750399;81;20993;-43
2022/10/11 00:15:17;;;;;;;16.87;9.45;;;;;;;10.73;73.72;99353.29;1750270;81;20992;-46
2022/10/11 00:17:43;;;;;;;18.15;10.03;;;;;;;10.75;73.21;99354.05;1750304;81;21502;-47
2022/10/11 00:20:11;;;;;;;16.40;9.30;;;;;;;10.76;73.39;99353.09;1750232;80;21024;-44
2022/10/11 00:22:39;;;;;;;19.80;9.45;;;;;;;10.75;73.49;99351.86;1750283;81;21004;-42
2022/10/11 00:25:06;;;;;;;20.75;9.50;;;;;;;10.76;73.46;99346.52;1750428;82;20969;-47
2022/10/11 00:27:33;;;;;;;24.00;10.15;;;;;;;10.76;73.37;99358.36;1750271;82;21009;-42
2022/10/11 00:29:59;;;;;;;20.65;10.10;;;;;;;10.75;73.83;99359.31;1750449;80;21028;-49
2022/10/11 00:32:26;;;;;;;21.27;9.40;;;;;;;10.71;74.30;99363.49;1750256;80;21518;-41
2022/10/11 00:34:52;;;;;;;16.10;9.17;;;;;;;10.76;74.37;99362.30;1750567;82;21530;-42
2022/10/11 00:37:19;;;;;;;20.10;9.78;;;;;;;10.75;74.30;99356.68;1750336;80;20961;-47
2022/10/11 00:39:45;;;;;;;16.95;9.60;;;;;;;10.76;73.64;99357.52;1750353;80;20992;-44
2022/10/11 00:42:16;;;;;;;22.45;9.98;;;;;;;10.72;74.29;99352.89;1750229;82;20993;-44
2022/10/11 00:44:46;;;;;;;21.65;9.63;;;;;;;10.74;74.06;99357.59;1750235;81;21474;-41
2022/10/11 00:47:22;;;;;;;17.87;9.73;;;;;;;10.78;74.49;99360.07;1750181;81;21048;-44
2022/10/11 00:50:00;;;;;;;20.02;9.80;;;;;;;10.79;74.76;99352.55;1750236;81;20965;-50
2022/10/11 00:52:39;;;;;;;22.58;9.65;;;;;;;10.80;75.05;99356.41;1750212;82;21028;-46
2022/10/11 00:55:10;;;;;;;17.95;10.45;;;;;;;10.83;74.55;99350.98;1750249;81;20969;-43
2022/10/11 00:57:41;;;;;;;18.27;9.53;;;;;;;10.85;74.75;99350.43;1750106;80;20985;-42
2022/10/11 01:00:11;;;;;;;20.90;10.25;;;;;;;10.87;74.15;99347.24;1750245;80;21477;-44
2022/10/11 01:02:39;;;;;;;18.95;9.98;;;;;;;10.86;75.12;99349.95;1750320;81;20961;-44
2022/10/11 01:05:09;;;;;;;16.20;10.03;;;;;;;10.86;75.23;99353.91;1720767;82;21036;-45
2022/10/11 01:07:36;;;;;;;19.85;9.63;;;;;;;10.85;75.77;99350.43;1750368;80;20981;-42
2022/10/11 01:10:03;;;;;;;;;;;;;;;10.85;75.70;99354.38;1752975;81;20992;-45
2022/10/11 01:12:30;;;;;;;17.00;9.70;;;;;;;10.84;77.08;99349.20;1750387;80;20107;-50
2022/10/11 01:15:32;;;;;;;20.45;10.23;;;;;;;10.84;75.90;99354.02;1750194;80;21040;-43
2022/10/11 01:18:37;;;;;;;16.55;9.73;;;;;;;10.82;76.41;99341.86;1750091;81;21525;-47
2022/10/11 01:21:11;;;;;;;24.55;10.20;;;;;;;10.82;76.55;99347.13;1748673;80;20973;-45
2022/10/11 01:23:57;;;;;;;20.90;10.23;;;;;;;10.84;76.14;99343.49;1749798;82;20969;-50
2022/10/11 01:26:58;;;;;;;19.02;9.98;;;;;;;10.86;76.11;99335.05;1749692;82;20996;-44
2022/10/11 01:29:41;;;;;;;24.95;10.75;;;;;;;10.89;76.16;99334.01;1747964;80;21045;-44
2022/10/11 01:32:22;;;;;;;23.52;10.30;;;;;;;10.88;76.87;99334.96;1750050;82;21533;-44
2022/10/11 01:35:35;;;;;;;17.20;10.48;;;;;;;10.89;77.02;99336.16;1748626;82;21012;-48
2022/10/11 01:38:10;;;;;;;22.27;9.75;;;;;;;10.89;77.11;99346.69;1750203;82;21032;-46
2022/10/11 01:40:47;;;;;;;16.15;10.00;;;;;;;10.89;77.15;99345.84;1750200;82;21005;-42
2022/10/11 01:43:14;;;;;;;25.30;11.30;;;;;;;10.91;77.15;99343.98;1749140;80;21024;-45
2022/10/11 01:45:42;;;;;;;26.20;10.95;;;;;;;10.93;77.28;99347.37;1750379;80;21048;-46
2022/10/11 01:48:11;;;;;;;22.25;10.13;;;;;;;10.92;77.38;99338.63;1750242;81;21029;-45
2022/10/11 01:50:48;;;;;;;16.75;10.90;;;;;;;10.97;77.36;99334.89;1750257;81;21037;-47
2022/10/11 01:53:41;;;;;;;26.17;10.85;;;;;;;10.92;77.89;99331.22;1750329;81;20998;-41
2022/10/11 01:56:17;;;;;;;17.20;10.53;;;;;;;10.95;77.58;99346.81;1749969;82;20946;-42
2022/10/11 01:59:09;;;;;;;23.87;10.93;;;;;;;10.99;77.69;99346.17;1750011;81;21304;-48
2022/10/11 02:02:08;;;;;;;18.73;10.53;;;;;;;11.02;77.71;99347.33;1748989;82;20973;-48
2022/10/11 02:04:53;;;;;;;23.87;10.53;;;;;;;11.03;77.74;99353.82;1750220;81;21498;-50
2022/10/11 02:07:33;;;;;;;20.08;10.15;;;;;;;11.05;78.56;99351.11;1750152;81;20965;-47
2022/10/11 02:10:39;;;;;;;19.75;10.45;;;;;;;11.05;78.37;99351.95;1750182;81;21821;-47
2022/10/11 02:13:14;;;;;;;20.97;10.57;;;;;;;11.06;78.35;99348.84;1750403;82;21416;-45
2022/10/11 02:15:41;;;;;;;16.93;9.70;;;;;;;11.04;79.11;99350.27;1749917;82;20961;-45
2022/10/11 02:18:21;;;;;;;15.05;9.38;;;;;;;11.04;78.12;99351.58;1750235;82;21339;-42
2022/10/11 02:20:49;;;;;;;19.87;10.13;;;;;;;11.04;79.05;99349.40;1750202;82;21549;-42
2022/10/11 02:23:24;;;;;;;;;;;;;;;11.04;79.43;99349.40;1752942;81;21029;-43
2022/10/11 02:25:51;;;;;;;15.98;10.25;;;;;;;11.01;81.05;99348.28;1750106;81;20103;-49
2022/10/11 02:28:22;;;;;;;16.80;10.10;;;;;;;10.96;80.79;99349.83;1750299;80;20997;-40
2022/10/11 02:30:51;;;;;;;20.70;9.93;;;;;;;10.93;80.11;99345.61;1750164;81;20997;-48
2022/10/11 02:33:21;;;;;;;17.60;11.38;;;;;;;10.87;80.95;99347.72;1750148;81;21518;-46
2022/10/11 02:35:52;;;;;;;20.92;11.55;;;;;;;10.87;79.82;99347.72;1750007;81;20965;-44
2022/10/11 02:38:29;;;;;;;16.93;10.48;;;;;;;10.84;80.55;99348.75;1750010;81;20996;-46
2022/10/11 02:43:39;;;;;;;17.07;10.28;;;;;;;10.82;80.20;99340.55;1818633;79;22859;-44
2022/10/11 02:46:07;;;;;;;25.20;10.65;;;;;;;10.73;80.68;99349.34;1793259;80;21027;-44
2022/10/11 02:48:34;;;;;;;17.95;10.70;;;;;;;10.70;81.06;99344.24;1793017;80;20986;-45
2022/10/11 02:51:02;;;;;;;21.93;10.80;;;;;;;10.69;81.20;99351.73;1793326;80;20979;-42
2022/10/11 02:53:28;;;;;;;16.42;10.32;;;;;;;10.66;81.93;99354.55;1793328;80;20986;-46
2022/10/11 02:55:55;;;;;;;22.37;10.75;;;;;;;10.66;81.06;99362.89;1793196;80;20982;-41
2022/10/11 02:58:22;;;;;;;21.80;11.08;;;;;;;10.65;81.24;99362.52;1792836;80;21003;-49
2022/10/11 03:00:48;;;;;;;;;;;;;;;10.65;80.80;99368.63;1795772;80;20994;-40
2022/10/11 03:03:14;;;;;;;20.15;10.90;;;;;;;10.61;82.55;99368.89;1793002;80;20121;-41
2022/10/11 03:05:40;;;;;;;21.82;10.85;;;;;;;10.62;81.45;99374.04;1793077;80;20975;-42
2022/10/11 03:08:11;;;;;;;19.42;11.10;;;;;;;10.59;81.56;99364.15;1793063;80;20991;-44
2022/10/11 03:10:38;;;;;;;24.30;10.90;;;;;;;10.59;81.65;99370.72;1793069;80;20963;-44
2022/10/11 03:13:04;;;;;;;18.60;10.60;;;;;;;10.56;82.51;99371.75;1793253;80;21480;-48
2022/10/11 03:15:31;;;;;;;19.73;10.82;;;;;;;10.53;82.48;99369.28;1793113;80;21022;-40
2022/10/11 03:17:56;;;;;;;19.80;11.08;;;;;;;10.52;82.09;99364.97;1793057;80;21014;-43
2022/10/11 03:20:23;;;;;;;23.50;11.83;;;;;;;10.51;81.58;99374.65;1793056;80;21030;-48
2022/10/11 03:22:49;;;;;;;19.40;10.95;;;;;;;10.48;82.21;99372.65;1793151;80;21028;-41
2022/10/11 03:25:15;;;;;;;16.45;10.53;;;;;;;10.47;82.50;99380.14;1793131;80;21463;-42
2022/10/11 03:27:41;;;;;;;23.60;11.43;;;;;;;10.46;82.91;99375.80;1793058;80;21002;-45
2022/10/11 03:30:08;;;;;;;23.07;10.85;;;;;;;10.44;82.81;99375.03;1793005;80;20991;-47
2022/10/11 03:32:34;;;;;;;17.77;10.72;;;;;;;10.41;83.93;99385.26;1793026;80;20990;-43
2022/10/11 03:35:00;;;;;;;19.67;10.82;;;;;;;10.41;83.75;99383.11;1793319;80;21848;-43
2022/10/11 03:37:27;;;;;;;19.30;11.40;;;;;;;10.38;84.04;99388.04;1793126;80;20986;-41
2022/10/11 03:39:52;;;;;;;22.20;10.80;;;;;;;10.35;83.97;99394.33;1793040;80;21088;-45
2022/10/11 03:42:18;;;;;;;27.77;11.50;;;;;;;10.31;85.08;99395.87;1790668;80;21019;-50
2022/10/11 03:44:44;;;;;;;18.27;11.12;;;;;;;10.30;84.39;99398.94;1787735;80;20967;-45
2022/10/11 03:47:10;;;;;;;18.02;11.00;;;;;;;10.32;84.52;99397.10;1787747;80;20995;-41
2022/10/11 03:49:36;;;;;;;21.95;11.45;;;;;;;10.31;84.29;99405.91;1787733;80;21042;-48
2022/10/11 03:52:02;;;;;;;15.28;10.28;;;;;;;10.30;83.92;99406.82;1787726;80;20994;-40
2022/10/11 03:54:28;;;;;;;22.85;11.48;;;;;;;10.28;84.82;99420.52;1787314;80;21471;-42
2022/10/11 03:56:53;;;;;;;16.87;10.78;;;;;;;10.28;84.25;99423.61;1787183;80;21099;-47
2022/10/11 03:59:19;;;;;;;16.67;10.55;;;;;;;10.28;84.17;99424.45;1787157;80;20987;-48
2022/10/11 04:01:45;;;;;;;16.20;11.15;;;;;;;10.27;84.86;99428.00;1787242;80;21026;-47
2022/10/11 04:04:10;;;;;;;21.25;11.20;;;;;;;10.26;84.66;99422.37;1787223;80;21536;-48
2022/10/11 04:06:36;;;;;;;21.40;11.65;;;;;;;10.26;84.84;99426.31;1787193;80;21030;-48
2022/10/11 04:09:02;;;;;;;19.80;10.68;;;;;;;10.25;85.09;99431.17;1787237;80;21030;-39
2022/10/11 04:11:28;;;;;;;22.13;10.63;;;;;;;10.24;85.49;99443.95;1787148;80;20995;-47
2022/10/11 04:13:54;;;;;;;21.87;11.73;;;;;;;10.22;85.58;99439.68;1787160;80;21523;-43
2022/10/11 04:16:19;;;;;;;21.20;12.73;;;;;;;10.22;85.36;99443.63;1787224;80;21424;-39
2022/10/11 04:18:45;;;;;;;15.63;10.80;;;;;;;10.20;85.84;99435.81;1787278;80;20983;-39
2022/10/11 04:21:11;;;;;;;17.67;11.33;;;;;;;10.17;85.24;99438.63;1787225;80;21012;-45
2022/10/11 04:23:36;;;;;;;20.35;11.73;;;;;;;10.13;86.10;99439.24;1787165;80;20983;-47
2022/10/11 04:26:07;;;;;;;30.12;12.15;;;;;;;10.06;86.44;99437.85;1787152;80;20982;-43
2022/10/11 04:28:33;;;;;;;23.85;12.40;;;;;;;10.03;87.02;99448.98;1787087;80;21021;-45
2022/10/11 04:30:59;;;;;;;21.20;12.80;;;;;;;10.02;86.10;99445.95;1787168;80;20991;-47
2022/10/11 04:33:25;;;;;;;20.88;12.28;;;;;;;10.02;86.68;99449.42;1787365;80;20990;-39
2022/10/11 04:35:55;;;;;;;21.05;11.50;;;;;;;10.02;86.85;99453.84;1787208;80;21499;-48
2022/10/11 04:38:22;;;;;;;20.27;12.90;;;;;;;10.00;86.94;99453.91;1787163;80;20967;-44
2022/10/11 04:40:47;;;;;;;22.77;12.75;;;;;;;10.02;85.78;99460.41;1787324;80;20998;-41
2022/10/11 04:43:15;;;;;;;22.30;13.53;;;;;;;10.01;86.70;99463.98;1781336;80;21023;-46
2022/10/11 04:45:41;;;;;;;;;;;;;;;9.97;86.25;99464.59;1781641;80;21023;-47
2022/10/11 04:48:07;;;;;;;21.27;12.07;;;;;;;9.94;87.07;99460.32;1779155;81;20413;-48
2022/10/11 04:50:34;;;;;;;23.55;13.28;;;;;;;9.94;86.26;99457.70;1778869;80;20968;-43
2022/10/11 04:52:59;;;;;;;25.72;13.20;;;;;;;9.93;86.92;99470.46;1778878;81;20999;-40
2022/10/11 04:55:25;;;;;;;21.15;13.80;;;;;;;9.89;86.79;99468.89;1778846;80;20984;-45
2022/10/11 04:57:51;;;;;;;21.65;13.32;;;;;;;9.87;87.87;99468.13;1778840;80;21019;-49
2022/10/11 05:00:17;;;;;;;23.80;13.28;;;;;;;9.90;87.33;99463.20;1779007;81;20991;-46
2022/10/11 05:02:43;;;;;;;22.58;13.25;;;;;;;9.91;86.83;99464.41;1778784;81;20999;-46
2022/10/11 05:05:09;;;;;;;24.18;13.55;;;;;;;9.90;87.67;99470.60;1778838;80;21508;-44
2022/10/11 05:07:35;;;;;;;19.98;13.03;;;;;;;9.93;87.25;99469.59;1778972;80;21512;-47
2022/10/11 05:10:01;;;;;;;26.40;12.60;;;;;;;9.94;87.93;99476.08;1778875;80;21022;-50
2022/10/11 05:12:27;;;;;;;20.02;13.10;;;;;;;9.93;87.69;99483.59;1778788;80;20995;-48
2022/10/11 05:14:52;;;;;;;21.70;11.95;;;;;;;9.97;87.04;99486.45;1778867;80;20991;-43
2022/10/11 05:17:18;;;;;;;24.30;12.50;;;;;;;10.00;86.72;99492.00;1778869;80;21006;-39
2022/10/11 05:19:44;;;;;;;19.17;12.00;;;;;;;10.04;86.35;99489.63;1778833;80;21453;-44
2022/10/11 05:22:09;;;;;;;26.48;12.68;;;;;;;10.03;88.01;99492.33;1778843;81;20995;-48
2022/10/11 05:24:35;;;;;;;22.60;12.53;;;;;;;10.05;88.36;99500.98;1778863;80;20991;-41
2022/10/11 05:27:01;;;;;;;24.12;12.23;;;;;;;10.07;87.97;99503.91;1778905;80;21480;-40
2022/10/11 05:29:27;;;;;;;23.80;12.68;;;;;;;10.12;88.19;99507.64;1778879;80;21437;-49
2022/10/11 05:31:53;;;;;;;20.75;12.55;;;;;;;10.15;87.73;99512.72;1778773;81;21114;-44
2022/10/11 05:34:18;;;;;;;25.30;13.32;;;;;;;10.16;89.11;99511.33;1778911;80;21465;-46
2022/10/11 05:36:44;;;;;;;23.95;12.82;;;;;;;10.22;87.55;99518.53;1778833;81;21290;-45
2022/10/11 05:39:10;;;;;;;19.80;11.83;;;;;;;10.24;87.24;99521.92;1778766;80;21003;-42
2022/10/11 05:41:35;;;;;;;24.77;12.78;;;;;;;10.29;87.74;99526.02;1778846;81;20996;-43
2022/10/11 05:44:01;;;;;;;27.70;13.18;;;;;;;10.29;88.95;99532.59;1778730;80;21043;-42
2022/10/11 05:46:27;;;;;;;22.55;12.95;;;;;;;10.34;88.19;99528.46;1778811;80;20992;-40
2022/10/11 05:48:53;;;;;;;22.05;12.82;;;;;;;10.36;88.77;99537.95;1778817;81;20998;-47
2022/10/11 05:51:19;;;;;;;21.60;12.90;;;;;;;10.40;88.55;99543.07;1778799;80;21007;-47
2022/10/11 05:53:44;;;;;;;23.35;11.45;;;;;;;10.42;88.28;99542.53;1757033;80;21031;-48
2022/10/11 05:56:23;;;;;;;23.02;13.00;;;;;;;10.42;88.06;99549.09;1750531;82;21031;-37
2022/10/11 05:58:50;;;;;;;28.15;12.70;;;;;;;10.43;88.01;99554.76;1750376;82;20980;-48
2022/10/11 06:01:22;;;;;;;24.50;13.85;;;;;;;10.41;88.80;99560.56;1750201;82;21034;-44
2022/10/11 06:03:48;;;;;;;28.67;12.73;;;;;;;10.44;88.80;99568.27;1750442;82;21643;-40
2022/10/11 06:06:14;;;;;;;27.42;13.72;;;;;;;10.45;88.37;99575.25;1750394;82;21022;-44
2022/10/11 06:08:40;;;;;;;25.20;13.05;;;;;;;10.45;88.42;99573.45;1750212;82;21000;-41
2022/10/11 06:11:16;;;;;;;25.95;13.50;;;;;;;10.46;88.29;99575.17;1750499;82;21458;-42
2022/10/11 06:13:43;;;;;;;27.02;13.35;;;;;;;10.48;87.27;99575.95;1749705;82;20991;-42
2022/10/11 06:16:09;;;;;;;24.30;12.45;;;;;;;10.51;86.56;99585.00;1750196;82;21512;-39
2022/10/11 06:18:36;;;;;;;18.10;13.23;;;;;;;10.51;87.91;99591.58;1750743;80;21000;-43
2022/10/11 06:21:02;;;;;;;29.30;12.93;;;;;;;10.52;88.21;99594.58;1750548;80;21543;-42
2022/10/11 06:23:28;;;;;;;26.75;11.85;;;;;;;10.56;88.11;99603.16;1750274;82;21030;-44
2022/10/11 06:25:59;;;;;;;24.55;12.65;;;;;;;10.56;88.65;99606.63;1750371;82;20995;-47
2022/10/11 06:28:27;;;;;;;18.90;11.68;;;;;;;10.59;87.97;99613.97;1750477;82;21030;-46
2022/10/11 06:30:55;;;;;;;24.70;12.60;;;;;;;10.65;87.50;99618.95;1729384;82;20987;-43
2022/10/11 06:33:21;;;;;;;22.60;12.43;;;;;;;10.66;88.69;99621.50;1750620;82;20972;-46
2022/10/11 06:35:47;;;;;;;22.20;12.05;;;;;;;10.67;87.81;99621.88;1752977;80;20972;-40
2022/10/11 06:38:13;;;;;;;19.98;11.65;;;;;;;10.71;87.33;99629.14;1778520;80;21416;-49
2022/10/11 06:40:38;;;;;;;25.85;12.13;;;;;;;10.71;87.25;99632.66;1778608;80;21116;-47
2022/10/11 06:43:04;;;;;;;20.82;11.78;;;;;;;10.74;87.67;99632.47;1778574;81;21477;-43
2022/10/11 06:45:30;;;;;;;18.30;11.80;;;;;;;10.71;88.50;99641.86;1778703;81;20983;-49
2022/10/11 06:47:56;;;;;;;18.82;11.20;;;;;;;10.74;88.04;99637.73;1778505;81;21492;-49
2022/10/11 06:50:22;;;;;;;20.35;10.85;;;;;;;10.75;87.28;99644.71;1778449;80;21421;-39
2022/10/11 06:52:48;;;;;;;21.55;11.08;;;;;;;10.73;88.55;99649.20;1778572;81;21027;-40
2022/10/11 06:55:13;;;;;;;18.70;11.55;;;;;;;10.75;88.88;99643.39;1778635;81;20991;-42
2022/10/11 06:57:39;;;;;;;22.35;10.48;;;;;;;10.80;87.90;99643.63;1778574;80;21047;-40
2022/10/11 07:00:06;;;;;;;21.48;11.30;;;;;;;10.82;88.92;99650.97;1778525;80;20987;-46
2022/10/11 07:02:32;;;;;;;20.48;11.38;;;;;;;;;;1778748;80;21000;-45
2022/10/11 07:04:58;;;;;;;21.33;12.13;;;;;;;10.87;87.74;99658.17;1778601;80;20979;-43
2022/10/11 07:07:23;;;;;;;21.68;11.75;;;;;;;10.90;86.91;99663.28;1772741;81;20929;-47
2022/10/11 07:09:49;;;;;;;19.42;11.45;;;;;;;10.89;88.47;99665.05;1739414;82;21003;-44
2022/10/11 07:12:18;;;;;;;23.00;12.55;;;;;;;10.90;88.87;99669.86;1739407;82;21011;-53
2022/10/11 07:14:43;;;;;;;16.73;11.38;;;;;;;10.91;88.20;99675.49;1775119;81;21113;-42
2022/10/11 07:17:09;;;;;;;24.67;11.40;;;;;;;10.91;87.93;99676.81;1778565;80;21014;-47
2022/10/11 07:19:35;;;;;;;15.60;10.85;;;;;;;10.93;88.37;99674.51;1778706;81;20964;-44
2022/10/11 07:22:01;;;;;;;22.00;11.88;;;;;;;10.92;88.24;99679.37;1778605;80;20980;-49
2022/10/11 07:24:27;;;;;;;21.20;12.07;;;;;;;10.91;88.27;99691.28;1778685;80;21450;-49
2022/10/11 07:26:52;;;;;;;17.90;10.95;;;;;;;10.91;88.97;99686.02;1778663;80;21746;-47
2022/10/11 07:29:18;;;;;;;17.10;11.50;;;;;;;10.95;88.55;99698.95;1778719;80;21389;-52
2022/10/11 07:31:44;;;;;;;24.30;11.68;;;;;;;10.99;88.19;99704.92;1778706;81;21031;-49
2022/10/11 07:34:10;;;;;;;22.58;12.30;;;;;;;11.00;88.57;99709.70;1778881;80;20976;-47
2022/10/11 07:36:36;;;;;;;27.15;12.73;;;;;;;10.99;88.68;99708.86;1778735;81;21022;-47
2022/10/11 07:39:06;;;;;;;20.60;12.45;;;;;;;11.02;88.27;99706.06;1778785;81;21015;-53
2022/10/11 07:41:32;;;;;;;28.35;14.78;;;;;;;10.97;88.97;99708.54;1778814;81;21205;-45
2022/10/11 07:43:59;;;;;;;22.67;14.00;;;;;;;11.00;89.12;99714.50;1778696;80;21012;-46
2022/10/11 07:46:25;;;;;;;40.80;21.62;;;;;;;11.08;88.48;99720.72;1778512;81;20959;-37
2022/10/11 07:48:51;;;;;;;32.58;18.62;;;;;;;11.04;88.71;99725.28;1777565;80;21567;-44
2022/10/11 07:51:20;;;;;;;45.95;20.90;;;;;;;11.08;88.29;99731.24;1777152;81;21070;-46
2022/10/11 07:53:54;;;;;;;66.87;34.98;;;;;;;11.07;87.43;99728.21;1778825;80;20991;-43
2022/10/11 07:56:25;;;;;;;26.80;17.05;;;;;;;11.00;87.52;99732.92;1778799;81;20999;-42
2022/10/11 07:58:56;;;;;;;25.40;12.43;;;;;;;11.00;88.08;99737.34;1777747;80;20984;-43
2022/10/11 08:01:23;;;;;;;18.00;11.88;;;;;;;11.00;87.51;99740.81;1777744;80;21559;-40
2022/10/11 08:03:49;;;;;;;22.70;12.37;;;;;;;11.04;87.29;99741.52;1778264;81;20972;-43
2022/10/11 08:06:20;;;;;;;23.07;12.10;;;;;;;11.05;87.40;99745.86;1777993;81;20995;-42
2022/10/11 08:08:46;;;;;;;16.90;9.25;;;;;;;11.08;87.53;99749.20;1778202;81;21069;-42
2022/10/11 08:11:25;;;;;;;23.85;10.30;;;;;;;11.11;86.47;99753.44;1778089;80;21845;-38
2022/10/11 08:13:52;;;;;;;15.10;9.33;;;;;;;11.09;85.83;99760.56;1777959;81;21515;-39
2022/10/11 08:16:18;;;;;;;18.03;7.90;;;;;;;11.05;86.12;99759.86;1778599;80;21647;-46
2022/10/11 08:18:44;;;;;;;12.25;8.28;;;;;;;11.10;84.92;99768.39;1778361;81;20980;-42
2022/10/11 08:21:14;;;;;;;16.40;8.28;;;;;;;11.18;84.46;99759.26;1778422;81;20991;-38
2022/10/11 08:23:40;;;;;;;11.75;6.40;;;;;;;11.16;83.70;99769.02;1778154;80;21334;-44
2022/10/11 08:26:07;;;;;;;9.25;6.25;;;;;;;11.21;83.47;99767.02;1760254;81;20968;-42
2022/10/11 08:28:33;;;;;;;13.35;5.65;;;;;;;11.20;83.40;99766.61;1753291;82;21338;-45
2022/10/11 08:30:58;;;;;;;11.78;6.10;;;;;;;11.28;83.48;99764.46;1753402;82;21523;-46
2022/10/11 08:33:25;;;;;;;10.30;5.33;;;;;;;11.40;83.42;99766.44;1753266;81;20964;-47
2022/10/11 08:35:53;;;;;;;8.97;4.67;;;;;;;11.51;82.29;99770.72;1753449;82;21014;-40
2022/10/11 08:38:19;;;;;;;11.83;4.78;;;;;;;11.64;81.96;99770.06;1753376;82;21329;-40
2022/10/11 08:40:50;;;;;;;9.00;4.75;;;;;;;11.74;81.00;99769.98;1753332;82;21618;-40
2022/10/11 08:43:46;;;;;;;10.08;5.30;;;;;;;11.74;79.33;99767.34;1751509;82;20988;-39
2022/10/11 08:46:14;;;;;;;10.68;5.90;;;;;;;11.84;78.94;99771.20;1757286;80;21670;-50
2022/10/11 08:48:47;;;;;;;11.10;6.17;;;;;;;11.92;79.40;99771.30;1759050;81;20975;-43
2022/10/11 08:51:36;;;;;;;9.23;5.35;;;;;;;11.96;78.50;99782.06;1752072;82;21527;-50
2022/10/11 08:54:16;;;;;;;7.53;3.77;;;;;;;12.02;78.55;99781.24;1748191;82;20967;-44
2022/10/11 08:56:44;;;;;;;12.53;4.70;;;;;;;12.08;77.37;99781.41;1758502;80;21014;-45
2022/10/11 08:59:16;;;;;;;6.55;3.20;;;;;;;12.23;77.32;99778.41;1756786;81;21504;-39
2022/10/11 09:01:59;;;;;;;7.08;3.40;;;;;;;12.27;75.71;99784.73;1747834;82;20982;-38
2022/10/11 09:04:25;;;;;;;5.55;3.42;;;;;;;12.35;75.55;99787.42;1749703;82;20967;-41
2022/10/11 09:07:03;;;;;;;6.35;2.72;;;;;;;12.40;76.04;99790.66;1748587;82;21103;-45
2022/10/11 09:09:43;;;;;;;9.68;3.25;;;;;;;12.39;75.39;99792.45;1749234;82;21008;-48
2022/10/11 09:12:32;;;;;;;8.38;3.10;;;;;;;12.50;75.31;99799.78;1747849;82;20953;-42
2022/10/11 09:15:28;;;;;;;6.37;2.85;;;;;;;12.55;73.79;99804.78;1745588;82;21456;-51
2022/10/11 09:18:08;;;;;;;6.37;3.10;;;;;;;12.54;73.38;99801.30;1725094;82;21135;-50
2022/10/11 09:20:51;;;;;;;6.53;2.67;;;;;;;12.77;74.07;99807.08;1736054;82;21014;-49
2022/10/11 09:23:43;;;;;;;6.58;2.67;;;;;;;12.82;74.48;99798.44;1726458;82;20964;-45
2022/10/11 09:26:21;;;;;;;8.98;2.83;;;;;;;12.85;73.89;99800.91;1713369;82;21473;-45
2022/10/11 09:29:07;;;;;;;5.67;3.00;;;;;;;12.78;71.55;99805.67;1738881;82;20966;-45
2022/10/11 09:31:33;;;;;;;5.03;2.17;;;;;;;12.86;72.49;99809.20;1724408;82;20959;-50
2022/10/11 09:34:11;;;;;;;8.50;2.40;;;;;;;12.93;71.68;99817.63;1738664;82;20980;-44
2022/10/11 09:37:06;;;;;;;8.33;2.80;;;;;;;12.91;71.50;99817.71;1721696;82;21015;-45
2022/10/11 09:39:39;;;;;;;29.20;19.95;;;;;;;12.99;69.99;99810.22;1722379;83;21030;-47
2022/10/11 09:42:09;;;;;;;10.30;6.53;;;;;;;12.99;69.84;99810.70;1721179;83;21030;-44
2022/10/11 09:44:39;;;;;;;7.67;3.10;;;;;;;13.00;69.15;99814.55;1707792;82;21155;-47
2022/10/11 09:47:06;;;;;;;4.37;2.02;;;;;;;12.98;70.10;99824.34;1715191;83;20964;-52
2022/10/11 09:49:43;;;;;;;5.97;2.33;;;;;;;12.97;69.74;99810.78;1723677;82;20987;-45
2022/10/11 09:52:16;;;;;;;5.65;2.05;;;;;;;13.08;69.41;99811.49;1744066;82;20954;-48
2022/10/11 09:54:50;;;;;;;4.50;2.20;;;;;;;13.20;69.40;99810.77;1744949;82;21816;-48
2022/10/11 09:57:26;;;;;;;5.35;2.00;;;;;;;13.20;68.52;99810.77;1751850;82;21072;-51
2022/10/11 10:00:04;;;;;;;13.08;8.28;;;;;;;13.15;66.90;99815.48;1737582;82;20930;-42
2022/10/11 10:02:39;;;;;;;185.15;116.15;;;;;;;13.12;67.56;99819.61;1740444;82;20978;-47
2022/10/11 10:05:16;;;;;;;27.82;16.97;;;;;;;13.15;67.71;99815.48;1748348;82;20972;-46
2022/10/11 10:08:11;;;;;;;6.75;3.22;;;;;;;13.15;66.06;99815.93;1729816;82;21004;-48
2022/10/11 10:10:51;;;;;;;6.70;2.67;;;;;;;13.32;67.57;99811.89;1752443;82;21480;-49
2022/10/11 10:13:45;;;;;;;4.22;1.80;;;;;;;13.36;66.77;99825.29;1730096;82;21073;-43
2022/10/11 10:16:32;;;;;;;7.55;2.25;;;;;;;13.35;66.93;99820.96;1740949;82;21459;-50
2022/10/11 10:19:05;;;;;;;3.35;1.70;;;;;;;13.34;64.97;99820.56;1729787;82;21742;-52
2022/10/11 10:21:35;;;;;;;9.08;2.58;;;;;;;13.27;65.11;99823.16;1749233;82;20946;-48
2022/10/11 10:24:06;;;;;;;6.28;2.00;;;;;;;13.29;65.10;99826.55;1737763;82;20983;-52
2022/10/11 10:26:33;;;;;;;8.18;2.33;;;;;;;13.16;65.12;99834.81;1734737;82;20950;-49
2022/10/11 10:29:10;;;;;;;6.20;1.90;;;;;;;13.11;65.11;99839.50;1746244;82;20986;-44
2022/10/11 10:31:50;;;;;;;6.45;1.92;;;;;;;13.01;64.68;99841.34;1728387;82;20945;-48
2022/10/11 10:34:26;;;;;;;24.25;2.70;;;;;;;12.94;64.91;99833.39;1752946;82;20987;-50
2022/10/11 10:37:01;;;;;;;4.17;1.90;;;;;;;12.94;64.68;99845.74;1733704;82;21034;-46
2022/10/11 10:39:47;;;;;;;5.15;2.00;;;;;;;12.93;64.90;99851.95;1732590;82;20989;-47
2022/10/11 10:42:17;;;;;;;10.08;1.75;;;;;;;12.86;65.32;99844.83;1737855;81;20987;-52
2022/10/11 10:44:49;;;;;;;6.83;2.00;;;;;;;12.81;64.54;99848.22;1762879;80;20980;-46
2022/10/11 10:47:35;;;;;;;4.53;1.60;;;;;;;12.66;63.04;99852.09;1756946;80;20919;-51
2022/10/11 10:50:24;;;;;;;8.30;2.22;;;;;;;12.74;63.78;99852.98;1773287;80;20967;-48
2022/10/11 10:53:33;;;;;;;5.20;1.87;;;;;;;12.73;64.28;99849.94;1774471;80;20980;-46
2022/10/11 10:56:17;;;;;;;188.57;94.30;;;;;;;12.78;64.58;99852.34;1730512;81;21402;-47
2022/10/11 10:59:18;;;;;;;34.23;18.65;;;;;;;12.93;64.47;99844.03;1752786;81;20979;-48
2022/10/11 11:02:00;;;;;;;5.87;2.65;;;;;;;13.17;64.25;99858.50;1749266;81;21047;-46
2022/10/11 11:04:33;;;;;;;7.55;1.95;;;;;;;13.25;62.44;99861.53;1742211;81;21446;-49
2022/10/11 11:07:10;;;;;;;11.48;2.33;;;;;;;13.22;62.95;99859.09;1756538;81;20994;-48
2022/10/11 11:09:42;;;;;;;;;;;;;;;13.14;63.52;99865.27;1727614;81;20953;-43
2022/10/11 11:12:31;;;;;;;5.25;1.90;;;;;;;13.02;62.62;99861.54;1743669;81;20119;-44
2022/10/11 11:15:27;;;;;;;20.17;2.62;;;;;;;13.04;63.30;99862.30;1748974;81;21537;-45
2022/10/11 11:18:34;;;;;;;7.47;2.67;;;;;;;13.04;62.96;99859.66;1743704;82;21516;-43
2022/10/11 11:21:29;;;;;;;7.70;1.85;;;;;;;13.09;62.58;99857.22;1752594;81;21573;-49
2022/10/11 11:24:34;;;;;;;6.08;2.00;;;;;;;13.10;62.16;99867.70;1668400;85;21470;-49
2022/10/11 11:27:40;;;;;;;9.15;1.65;;;;;;;13.15;61.98;99869.62;1667223;85;21007;-45
2022/10/11 11:30:41;;;;;;;3.20;1.37;;;;;;;13.18;61.57;99867.27;1669358;85;21080;-48
2022/10/11 11:33:18;;;;;;;6.35;1.70;;;;;;;13.33;61.32;99871.69;1655511;85;20993;-46
2022/10/11 11:35:54;;;;;;;9.45;2.20;;;;;;;13.50;61.74;99864.13;1631858;86;21513;-49
2022/10/11 11:38:31;;;;;;;7.87;1.60;;;;;;;13.58;61.47;99867.16;1675169;85;20971;-50
2022/10/11 11:41:01;;;;;;;5.00;1.25;;;;;;;13.73;59.98;99871.16;1678537;85;21629;-45
2022/10/11 11:43:37;;;;;;;5.33;1.90;;;;;;;13.74;56.42;99868.43;1675179;85;21558;-48
2022/10/11 11:46:23;;;;;;;8.48;2.00;;;;;;;13.83;59.48;99866.56;1671021;86;22244;-42
2022/10/11 11:48:52;;;;;;;8.53;2.30;;;;;;;13.91;58.83;99863.93;1670823;86;21043;-39